Time;durP1;ratioP1;P1;durP2;ratioP2;P2;SDS_P1;SDS_P2;PMS_P1;PMS_P2;Temp;Humidity;BMP_temperature;BMP_pressure;BME280_temperature;BME280_humidity;BME280_pressure;Samples;Min_cycle;Max_cycle;Signal;HPM_P1;HPM_P2
2023/10/06 00:01:21;;;;;;;15.03;13.80;;;;;;;14.10;94.66;93462.38;5051487;28;20542;-85
2023/10/06 00:03:47;;;;;;;14.90;13.53;;;;;;;14.11;93.71;93460.53;5070980;28;20217;-82
2023/10/06 00:06:22;;;;;;;14.77;13.53;;;;;;;14.08;93.75;93468.97;5070337;28;20182;-77
2023/10/06 00:08:51;;;;;;;14.87;13.57;;;;;;;14.09;93.76;93476.56;5070043;28;20229;-75
2023/10/06 00:11:28;;;;;;;15.83;14.17;;;;;;;14.15;93.42;93475.44;5065006;28;20281;-77
2023/10/06 00:14:00;;;;;;;15.13;12.80;;;;;;;14.03;94.30;93472.44;5070359;28;20288;-78
2023/10/06 00:16:27;;;;;;;16.40;14.13;;;;;;;14.03;94.68;93471.63;5070006;28;20189;-78
2023/10/06 00:18:56;;;;;;;16.70;14.00;;;;;;;14.06;95.09;93460.56;5068151;28;20237;-78
2023/10/06 00:21:21;;;;;;;14.83;13.33;;;;;;;13.97;94.60;93452.53;5071181;28;20178;-78
2023/10/06 00:23:47;;;;;;;14.30;12.83;;;;;;;14.08;94.22;93453.22;5070395;28;20247;-77
2023/10/06 00:26:16;;;;;;;17.10;13.97;;;;;;;13.99;94.41;93453.03;5069594;28;20223;-77
2023/10/06 00:28:44;;;;;;;15.43;13.93;;;;;;;13.98;94.69;93458.56;5069610;28;20259;-78
2023/10/06 00:31:11;;;;;;;15.17;13.87;;;;;;;13.87;95.16;93447.38;5069391;28;20221;-77
2023/10/06 00:33:37;;;;;;;15.50;13.90;;;;;;;13.95;95.76;93453.88;5070031;28;20221;-77
2023/10/06 00:36:11;;;;;;;15.50;14.00;;;;;;;13.84;95.60;93442.69;5069545;28;20201;-77
2023/10/06 00:38:37;;;;;;;19.97;14.27;;;;;;;13.83;95.50;93451.63;5065672;28;20232;-77
2023/10/06 00:41:06;;;;;;;14.40;13.23;;;;;;;13.87;95.87;93452.63;5068956;28;20162;-78
2023/10/06 00:43:39;;;;;;;16.20;14.60;;;;;;;13.84;96.07;93453.19;5068508;28;20217;-79
2023/10/06 00:46:08;;;;;;;17.97;13.20;;;;;;;13.74;96.00;93453.28;5067807;28;20166;-77
2023/10/06 00:48:39;;;;;;;15.27;13.67;;;;;;;13.77;95.91;93451.94;5057390;28;20255;-77
2023/10/06 00:51:12;;;;;;;14.87;13.53;;;;;;;13.72;95.78;93455.41;5061845;28;20216;-76
2023/10/06 00:53:38;;;;;;;16.43;12.77;;;;;;;13.75;95.33;93460.09;5067508;28;20276;-77
2023/10/06 00:56:10;;;;;;;17.97;13.60;;;;;;;13.68;95.93;93446.50;5067703;28;20197;-77
2023/10/06 00:58:39;;;;;;;15.40;13.93;;;;;;;13.65;95.88;93449.69;5057269;28;20300;-77
2023/10/06 01:01:08;;;;;;;15.47;13.93;;;;;;;13.80;95.31;93451.41;5069399;28;20185;-77
2023/10/06 01:03:44;;;;;;;15.57;14.00;;;;;;;13.71;95.63;93458.31;5062033;28;20240;-77
2023/10/06 01:06:17;;;;;;;19.03;14.73;;;;;;;13.64;96.03;93463.88;5068383;28;20174;-77
2023/10/06 01:08:53;;;;;;;14.33;12.97;;;;;;;13.62;95.96;93460.72;5067825;28;20241;-77
2023/10/06 01:11:20;;;;;;;15.13;13.73;;;;;;;13.69;95.53;93466.47;5065572;28;20204;-77
2023/10/06 01:13:56;;;;;;;15.03;13.40;;;;;;;13.70;95.02;93454.91;5065497;28;20225;-77
2023/10/06 01:16:34;;;;;;;16.57;13.47;;;;;;;13.70;94.93;93452.28;5068142;28;20215;-77
2023/10/06 01:21:52;;;;;;;15.13;13.90;;;;;;;13.73;94.96;93451.72;5066275;28;20191;-78
2023/10/06 01:24:27;;;;;;;15.73;14.07;;;;;;;13.62;95.20;93452.88;5064106;28;20232;-77
2023/10/06 01:26:54;;;;;;;17.40;14.37;;;;;;;13.66;94.73;93447.84;5063501;28;20228;-77
2023/10/06 01:29:22;;;;;;;15.17;13.87;;;;;;;13.74;94.84;93442.00;5060821;28;20256;-77
2023/10/06 01:31:49;;;;;;;16.50;12.93;;;;;;;13.60;94.96;93430.59;5063554;28;20212;-77
2023/10/06 01:34:15;;;;;;;17.03;13.80;;;;;;;13.70;94.39;93428.66;5059756;28;20206;-77
2023/10/06 01:36:42;;;;;;;15.07;13.87;;;;;;;13.72;94.47;93438.88;5064782;28;20185;-77
2023/10/06 01:39:16;;;;;;;14.73;13.40;;;;;;;13.70;95.22;93454.91;5066990;28;20899;-74
2023/10/06 01:41:45;;;;;;;15.83;13.77;;;;;;;13.84;94.71;93447.16;5067751;28;20189;-77
2023/10/06 01:44:12;;;;;;;14.63;13.23;;;;;;;13.89;94.87;93462.84;5069016;28;20216;-77
2023/10/06 01:46:38;;;;;;;15.83;14.17;;;;;;;13.77;94.66;93458.00;5067470;28;20201;-77
2023/10/06 01:49:04;;;;;;;16.10;14.40;;;;;;;14.04;93.43;93460.84;5067376;28;20233;-75
2023/10/06 01:51:35;;;;;;;14.80;13.23;;;;;;;14.19;92.78;93468.56;5063178;28;20205;-77
2023/10/06 01:54:02;;;;;;;16.47;13.60;;;;;;;14.25;92.52;93464.09;5068770;28;20225;-77
2023/10/06 01:56:31;;;;;;;14.77;13.47;;;;;;;14.25;92.94;93467.50;5069127;28;20909;-77
2023/10/06 01:58:59;;;;;;;15.17;13.97;;;;;;;14.38;92.09;93461.56;5061031;28;20221;-79
2023/10/06 02:01:24;;;;;;;13.57;12.03;;;;;;;14.35;92.35;93469.22;5068956;28;20192;-77
2023/10/06 02:03:49;;;;;;;16.37;14.70;;;;;;;14.39;92.14;93473.66;5060512;28;20210;-77
2023/10/06 02:06:16;;;;;;;15.17;13.67;;;;;;;14.40;91.96;93466.53;5060803;28;20174;-75
2023/10/06 02:08:50;;;;;;;14.73;13.33;;;;;;;14.47;92.01;93473.00;5072051;28;20224;-76
2023/10/06 02:11:16;;;;;;;14.53;13.03;;;;;;;14.64;91.54;93477.03;5070073;28;20231;-77
2023/10/06 02:13:42;;;;;;;16.23;13.17;;;;;;;14.67;91.84;93481.72;5072875;28;20312;-77
2023/10/06 02:16:08;;;;;;;17.30;14.00;;;;;;;14.58;92.47;93475.53;5066273;28;20193;-77
2023/10/06 02:18:37;;;;;;;14.27;12.97;;;;;;;14.56;93.41;93472.41;5072792;28;20229;-79
2023/10/06 02:21:23;;;;;;;15.60;14.00;;;;;;;14.58;93.52;93473.69;5064598;28;20219;-76
2023/10/06 02:23:50;;;;;;;14.97;13.57;;;;;;;13.45;93.42;93315.31;5067130;28;20205;-75
2023/10/06 02:26:17;;;;;;;14.57;13.17;;;;;;;14.49;94.06;93481.41;5064699;28;20229;-77
2023/10/06 02:28:48;;;;;;;20.30;14.40;;;;;;;14.64;93.83;93482.28;5071804;28;20243;-77
2023/10/06 02:31:14;;;;;;;16.63;13.60;;;;;;;14.55;94.39;93476.09;5072509;28;20201;-77
2023/10/06 02:33:40;;;;;;;15.03;13.53;;;;;;;14.31;95.09;93490.03;5059258;28;20233;-77
2023/10/06 02:36:17;;;;;;;15.37;14.00;;;;;;;14.19;95.18;93486.94;5072222;28;20203;-76
2023/10/06 02:38:50;;;;;;;14.90;13.63;;;;;;;14.11;93.57;93437.69;5061479;28;20225;-77
2023/10/06 02:41:26;;;;;;;16.60;15.00;;;;;;;14.61;93.50;93483.66;5065986;28;20185;-77
2023/10/06 02:43:53;;;;;;;15.73;14.27;;;;;;;14.56;93.82;93496.84;5061899;28;20223;-77
2023/10/06 02:46:25;;;;;;;15.70;14.30;;;;;;;14.56;93.70;93490.78;5062470;28;20208;-77
2023/10/06 02:48:51;;;;;;;15.43;14.03;;;;;;;14.72;93.22;93492.19;5068352;28;20217;-79
2023/10/06 02:51:29;;;;;;;14.77;13.57;;;;;;;14.74;92.10;93490.06;5067989;28;20212;-82
2023/10/06 02:54:09;;;;;;;15.50;13.90;;;;;;;14.58;92.61;93483.41;5069534;28;20221;-75
2023/10/06 02:56:34;;;;;;;16.40;14.87;;;;;;;14.65;92.74;93486.47;5061181;28;20201;-77
2023/10/06 02:59:08;;;;;;;16.30;13.37;;;;;;;14.70;92.51;93473.28;5070483;28;20251;-77
2023/10/06 03:01:38;;;;;;;15.77;14.27;;;;;;;14.65;92.64;93489.09;5070089;28;20232;-78
2023/10/06 03:04:06;;;;;;;15.60;14.00;;;;;;;14.62;92.93;93484.41;5054859;28;20286;-77
2023/10/06 03:06:32;;;;;;;15.50;13.70;;;;;;;14.66;92.77;93486.22;5063893;28;20166;-77
2023/10/06 03:08:57;;;;;;;16.23;14.53;;;;;;;14.66;92.50;93474.91;5069181;28;20225;-77
2023/10/06 03:11:24;;;;;;;17.40;14.17;;;;;;;14.76;93.29;93480.81;5058257;28;20206;-77
2023/10/06 03:13:54;;;;;;;14.67;13.37;;;;;;;14.71;93.07;93467.72;5071106;28;20233;-77
2023/10/06 03:16:21;;;;;;;15.03;13.43;;;;;;;14.85;93.27;93486.25;5067838;28;20197;-78
2023/10/06 03:18:50;;;;;;;15.17;13.37;;;;;;;14.72;92.98;93484.28;5068397;28;20224;-78
2023/10/06 03:21:15;;;;;;;14.97;13.57;;;;;;;14.74;92.81;93482.94;5069726;28;20173;-78
2023/10/06 03:23:45;;;;;;;15.80;13.80;;;;;;;14.89;92.33;93492.50;5068679;28;20216;-77
2023/10/06 03:26:30;;;;;;;14.33;12.93;;;;;;;14.90;92.77;93501.94;5071178;28;20221;-78
2023/10/06 03:29:02;;;;;;;16.70;14.47;;;;;;;14.94;92.60;93482.66;5063622;28;20210;-78
2023/10/06 03:31:44;;;;;;;15.80;12.97;;;;;;;15.00;92.49;93502.59;5064822;28;20209;-78
2023/10/06 03:34:15;;;;;;;14.60;13.20;;;;;;;14.90;93.52;93491.41;5068183;28;20229;-77
2023/10/06 03:36:46;;;;;;;14.70;13.30;;;;;;;14.88;93.94;93490.94;5071215;28;20194;-78
2023/10/06 03:39:12;;;;;;;14.13;12.73;;;;;;;14.77;94.20;93482.38;5061451;28;20937;-77
2023/10/06 03:41:41;;;;;;;15.77;14.27;;;;;;;14.75;93.80;93483.72;5056054;28;20186;-77
2023/10/06 03:44:11;;;;;;;17.53;13.57;;;;;;;14.78;91.97;93481.31;5062914;28;20213;-78
2023/10/06 03:46:37;;;;;;;13.37;12.13;;;;;;;14.80;89.64;93488.94;5070341;28;20180;-77
2023/10/06 03:49:03;;;;;;;15.27;13.27;;;;;;;14.79;89.83;93482.09;5064934;28;20225;-79
2023/10/06 03:51:29;;;;;;;13.60;12.33;;;;;;;14.83;89.05;93480.47;5066010;28;20217;-78
2023/10/06 03:53:56;;;;;;;15.23;12.60;;;;;;;14.87;88.32;93486.72;5095896;28;20253;-76
2023/10/06 03:56:22;;;;;;;13.17;12.03;;;;;;;14.85;87.84;93486.25;5068239;28;20173;-74
2023/10/06 03:58:48;;;;;;;12.63;11.47;;;;;;;14.95;87.74;93488.72;5064640;28;20209;-85
2023/10/06 04:01:19;;;;;;;13.93;12.67;;;;;;;14.93;87.23;93494.28;5069160;28;20243;-74
2023/10/06 04:03:45;;;;;;;13.30;12.00;;;;;;;15.00;86.57;93493.94;5069208;28;20217;-75
2023/10/06 04:06:13;;;;;;;14.57;13.20;;;;;;;14.78;87.58;93473.44;5068875;28;20248;-84
2023/10/06 04:08:40;;;;;;;18.17;12.77;;;;;;;14.88;87.21;93488.31;5065355;28;20336;-84
2023/10/06 04:11:05;;;;;;;14.23;12.83;;;;;;;14.95;86.43;93493.97;5059553;28;20227;-86
2023/10/06 04:13:31;;;;;;;13.23;12.03;;;;;;;14.96;86.41;93492.94;5053702;28;20227;-85
2023/10/06 04:15:58;;;;;;;13.40;12.30;;;;;;;14.91;86.71;93490.38;5061676;28;20189;-86
2023/10/06 04:18:24;;;;;;;12.87;11.77;;;;;;;14.82;87.01;93482.31;5069833;28;20236;-86
2023/10/06 04:20:54;;;;;;;13.73;12.47;;;;;;;14.90;87.14;93494.03;5067263;28;20181;-83
2023/10/06 04:23:24;;;;;;;12.93;11.53;;;;;;;14.88;87.22;93493.56;5064362;28;20289;-82
2023/10/06 04:25:54;;;;;;;14.73;12.27;;;;;;;14.86;86.16;93495.69;5053342;28;20285;-81
2023/10/06 04:28:22;;;;;;;14.20;12.73;;;;;;;15.01;84.97;93487.59;5064185;28;20231;-82
2023/10/06 04:30:49;;;;;;;13.37;11.93;;;;;;;15.04;84.86;93498.34;5058406;28;20182;-86
2023/10/06 04:33:18;;;;;;;12.83;11.57;;;;;;;15.08;86.17;93498.56;5063679;28;20248;-80
2023/10/06 04:35:52;;;;;;;17.73;13.63;;;;;;;15.18;84.75;93503.66;5077061;28;20170;-86
2023/10/06 04:38:19;;;;;;;12.77;11.50;;;;;;;15.09;85.17;93508.00;5073828;28;20224;-89
2023/10/06 04:40:46;;;;;;;12.77;11.60;;;;;;;14.81;85.36;93475.50;5083472;28;20245;-86
2023/10/06 04:43:13;;;;;;;15.23;13.73;;;;;;;14.97;86.24;93507.63;5086343;28;20246;-88
2023/10/06 04:45:39;;;;;;;14.17;12.63;;;;;;;14.97;86.67;93510.28;5078691;28;20181;-84
2023/10/06 04:48:07;;;;;;;14.00;12.60;;;;;;;14.99;86.63;93508.91;5075532;28;20237;-86
2023/10/06 04:50:34;;;;;;;17.87;13.70;;;;;;;14.98;87.64;93512.63;5078864;28;20184;-85
2023/10/06 04:53:00;;;;;;;14.37;12.97;;;;;;;14.95;87.90;93512.38;5089431;28;20284;-78
2023/10/06 04:55:26;;;;;;;15.77;13.03;;;;;;;15.11;88.05;93509.28;5086383;28;20193;-81
2023/10/06 04:57:51;;;;;;;14.27;13.00;;;;;;;15.11;87.98;93516.41;5063539;28;20199;-81
2023/10/06 05:00:20;;;;;;;15.07;13.67;;;;;;;15.17;87.76;93529.19;5085687;28;20184;-85
2023/10/06 05:02:47;;;;;;;15.90;13.60;;;;;;;15.14;88.17;93534.25;5084288;28;20204;-82
2023/10/06 05:05:20;;;;;;;13.80;12.67;;;;;;;15.09;88.73;93515.88;5084749;28;20205;-80
2023/10/06 05:07:53;;;;;;;14.57;13.27;;;;;;;15.13;89.10;93527.44;5092645;28;20613;-80
2023/10/06 05:10:21;;;;;;;15.03;13.63;;;;;;;14.86;89.27;93490.44;5080310;28;20181;-82
2023/10/06 05:12:50;;;;;;;16.67;14.80;;;;;;;15.16;89.54;93529.47;5088075;28;20207;-83
2023/10/06 05:15:30;;;;;;;16.43;14.23;;;;;;;15.15;90.00;93538.41;5096844;28;20192;-82
2023/10/06 05:18:03;;;;;;;21.73;13.80;;;;;;;15.33;89.54;93542.94;5087075;28;20228;-82
2023/10/06 05:20:30;;;;;;;16.17;14.43;;;;;;;15.21;90.43;93545.19;5087714;28;20190;-82
2023/10/06 05:22:58;;;;;;;20.73;14.47;;;;;;;15.25;90.41;93551.47;5087545;28;20239;-82
2023/10/06 05:25:25;;;;;;;15.07;13.47;;;;;;;15.14;89.03;93506.09;5087763;28;20193;-82
2023/10/06 05:27:51;;;;;;;16.50;13.93;;;;;;;15.38;89.23;93545.50;5087839;28;20192;-82
2023/10/06 05:30:17;;;;;;;16.27;14.77;;;;;;;15.35;88.71;93546.03;5105734;28;20198;-81
2023/10/06 05:32:43;;;;;;;13.83;12.43;;;;;;;15.31;88.69;93551.09;5095607;28;20205;-82
2023/10/06 05:35:10;;;;;;;16.13;14.33;;;;;;;15.46;87.96;93552.75;5085464;28;20205;-82
2023/10/06 05:37:36;;;;;;;13.73;12.37;;;;;;;15.26;87.93;93548.53;5080180;28;20196;-81
2023/10/06 05:40:02;;;;;;;18.53;13.87;;;;;;;15.40;87.28;93562.59;5083104;28;20184;-82
2023/10/06 05:42:27;;;;;;;15.90;12.97;;;;;;;15.31;86.25;93550.31;5083623;28;20181;-83
2023/10/06 05:44:53;;;;;;;16.07;12.97;;;;;;;15.45;86.25;93559.88;5082870;28;20244;-83
2023/10/06 05:47:19;;;;;;;15.60;13.40;;;;;;;15.45;85.41;93548.56;5082372;28;20181;-86
2023/10/06 05:49:49;;;;;;;15.60;14.10;;;;;;;15.55;85.43;93569.47;5094190;28;20954;-84
2023/10/06 05:52:16;;;;;;;16.43;13.77;;;;;;;15.31;86.26;93550.31;5087427;28;20208;-83
2023/10/06 05:54:42;;;;;;;19.57;13.67;;;;;;;15.25;85.92;93551.47;5084562;28;20229;-84
2023/10/06 05:57:09;;;;;;;13.53;11.83;;;;;;;15.26;85.69;93558.28;5088289;28;20188;-83
2023/10/06 05:59:36;;;;;;;15.23;13.00;;;;;;;15.31;85.17;93555.59;5080923;28;20244;-83
2023/10/06 06:02:04;;;;;;;14.10;12.67;;;;;;;15.39;85.67;93573.41;5085614;28;20188;-87
2023/10/06 06:04:30;;;;;;;17.23;13.53;;;;;;;15.45;85.07;93580.94;5086711;28;20311;-79
2023/10/06 06:06:57;;;;;;;15.53;13.20;;;;;;;15.67;84.37;93570.59;5075872;28;20184;-80
2023/10/06 06:09:33;;;;;;;18.83;13.17;;;;;;;15.65;84.33;93590.41;5076856;28;20232;-80
2023/10/06 06:12:00;;;;;;;14.80;13.50;;;;;;;15.89;83.64;93578.69;5085841;28;21104;-86
2023/10/06 06:14:25;;;;;;;15.17;12.93;;;;;;;15.82;83.98;93574.88;5079553;28;20248;-79
2023/10/06 06:16:51;;;;;;;16.23;14.47;;;;;;;15.75;83.98;93585.00;5079776;28;20193;-81
2023/10/06 06:19:17;;;;;;;13.80;12.57;;;;;;;15.79;84.16;93588.63;5084026;28;20228;-79
2023/10/06 06:21:44;;;;;;;18.43;14.57;;;;;;;15.91;83.80;93602.13;5080935;28;20180;-78
2023/10/06 06:24:10;;;;;;;15.37;13.77;;;;;;;16.01;83.11;93584.34;5082796;28;20221;-78
2023/10/06 06:26:38;;;;;;;15.40;13.87;;;;;;;16.03;83.23;93592.72;5083398;28;20212;-76
2023/10/06 06:29:05;;;;;;;14.00;12.50;;;;;;;16.10;83.20;93594.97;5069111;28;20572;-76
2023/10/06 06:31:32;;;;;;;15.53;14.03;;;;;;;16.19;83.16;93606.41;5087463;28;20204;-76
2023/10/06 06:33:59;;;;;;;12.63;11.47;;;;;;;16.31;82.77;93606.75;5084181;28;20248;-77
2023/10/06 06:36:31;;;;;;;15.17;13.70;;;;;;;16.41;81.70;93606.59;5087679;28;20200;-80
2023/10/06 06:38:58;;;;;;;15.97;12.67;;;;;;;16.41;81.98;93605.78;5087067;28;20235;-75
2023/10/06 06:41:24;;;;;;;16.27;13.37;;;;;;;16.61;81.87;93616.00;5082306;28;20176;-77
2023/10/06 06:43:54;;;;;;;15.07;13.50;;;;;;;16.65;81.29;93617.03;5056765;28;20240;-74
2023/10/06 06:46:20;;;;;;;14.20;12.77;;;;;;;16.58;81.60;93622.66;5087637;28;20173;-75
2023/10/06 06:48:46;;;;;;;14.03;12.77;;;;;;;16.49;81.57;93608.59;5077659;28;20224;-76
2023/10/06 06:51:12;;;;;;;17.70;13.97;;;;;;;16.68;81.02;93629.63;5087268;28;20204;-76
2023/10/06 06:53:39;;;;;;;14.10;13.00;;;;;;;16.70;81.17;93630.88;5073742;28;20237;-80
2023/10/06 06:56:05;;;;;;;15.27;13.67;;;;;;;16.54;81.54;93634.88;5082033;28;20177;-83
2023/10/06 06:58:32;;;;;;;14.17;12.73;;;;;;;16.44;81.41;93632.41;5084653;28;20221;-86
2023/10/06 07:00:58;;;;;;;14.37;12.80;;;;;;;16.60;82.13;93635.56;5076551;28;20256;-85
2023/10/06 07:03:24;;;;;;;17.43;13.43;;;;;;;16.77;80.78;93619.97;5085061;28;20298;-72
2023/10/06 07:05:50;;;;;;;13.83;12.63;;;;;;;16.78;81.24;93643.41;5085857;28;20207;-72
2023/10/06 07:08:16;;;;;;;15.93;12.83;;;;;;;16.71;80.50;93632.47;5085186;28;20282;-72
2023/10/06 07:10:46;;;;;;;14.90;13.50;;;;;;;16.60;81.18;93615.25;5083521;28;20184;-71
2023/10/06 07:13:12;;;;;;;14.83;13.33;;;;;;;16.79;80.96;93633.66;5082017;28;20223;-72
2023/10/06 07:15:37;;;;;;;13.87;12.67;;;;;;;16.79;80.71;93623.88;5067145;28;20205;-72
2023/10/06 07:18:03;;;;;;;17.57;13.73;;;;;;;17.22;80.09;93645.50;5072836;28;20258;-72
2023/10/06 07:20:30;;;;;;;14.20;12.33;;;;;;;16.93;79.99;93643.16;5084136;28;20185;-72
2023/10/06 07:22:57;;;;;;;14.03;12.63;;;;;;;17.00;79.99;93642.75;5088212;28;20240;-72
2023/10/06 07:25:24;;;;;;;13.57;12.27;;;;;;;16.91;80.12;93652.41;5089405;28;20248;-73
2023/10/06 07:27:52;;;;;;;16.03;13.63;;;;;;;17.05;80.58;93640.00;5071939;28;20208;-72
2023/10/06 07:30:22;;;;;;;14.10;12.63;;;;;;;17.27;79.86;93640.91;5077244;28;20268;-72
2023/10/06 07:32:48;;;;;;;14.27;12.80;;;;;;;17.22;78.92;93637.56;5069500;28;20223;-72
2023/10/06 07:35:15;;;;;;;18.93;12.10;;;;;;;17.25;79.06;93640.41;5089943;28;20189;-71
2023/10/06 07:37:49;;;;;;;15.03;13.53;;;;;;;17.23;78.51;93639.16;5084843;28;20189;-73
2023/10/06 07:40:18;;;;;;;13.57;12.33;;;;;;;17.38;77.92;93630.94;5089517;28;20192;-72
2023/10/06 07:42:46;;;;;;;16.90;13.10;;;;;;;17.25;78.38;93631.72;5086703;28;20173;-70
2023/10/06 07:45:12;;;;;;;16.60;14.03;;;;;;;17.57;77.88;93621.06;5079864;28;20181;-71
2023/10/06 07:47:38;;;;;;;13.47;12.23;;;;;;;17.53;77.47;93630.63;5088955;28;20195;-74
2023/10/06 07:50:05;;;;;;;15.63;13.27;;;;;;;17.81;76.61;93632.16;5089970;28;20181;-74
2023/10/06 07:52:33;;;;;;;15.10;12.57;;;;;;;17.68;76.57;93613.69;5089516;28;20470;-73
2023/10/06 07:55:05;;;;;;;15.07;13.40;;;;;;;17.77;76.52;93633.03;5087911;28;20210;-73
2023/10/06 07:57:32;;;;;;;16.70;13.53;;;;;;;17.83;75.97;93634.50;5088081;28;20173;-72
2023/10/06 08:00:06;;;;;;;20.03;14.57;;;;;;;18.19;75.87;93632.63;5081969;28;20236;-73
2023/10/06 08:02:31;;;;;;;15.27;13.77;;;;;;;18.48;73.30;93628.50;5081739;28;20272;-73
2023/10/06 08:04:57;;;;;;;14.30;12.60;;;;;;;18.05;75.21;93631.88;5083539;28;20274;-73
2023/10/06 08:07:28;;;;;;;15.70;13.30;;;;;;;18.15;73.98;93634.31;5087942;28;20193;-75
2023/10/06 08:09:58;;;;;;;15.33;13.10;;;;;;;17.80;74.40;93632.44;5082135;28;20236;-75
2023/10/06 08:12:24;;;;;;;18.57;13.20;;;;;;;18.01;74.18;93626.41;5081876;28;20221;-75
2023/10/06 08:14:50;;;;;;;14.90;13.40;;;;;;;18.03;74.33;93637.47;5086772;28;20259;-76
2023/10/06 08:17:16;;;;;;;15.20;13.07;;;;;;;17.84;75.12;93623.63;5085393;28;20178;-75
2023/10/06 08:19:41;;;;;;;13.80;12.50;;;;;;;17.89;75.17;93623.53;5089461;28;20233;-74
2023/10/06 08:22:06;;;;;;;14.00;12.77;;;;;;;18.09;73.99;93630.19;5085432;28;20208;-74
2023/10/06 08:24:32;;;;;;;14.50;13.10;;;;;;;18.00;73.77;93634.63;5079588;28;20220;-74
2023/10/06 08:26:57;;;;;;;16.47;15.00;;;;;;;18.04;73.83;93625.06;5086908;28;20238;-74
2023/10/06 08:29:23;;;;;;;15.67;13.03;;;;;;;18.15;73.28;93632.44;5084736;28;20220;-74
2023/10/06 08:31:48;;;;;;;21.20;13.77;;;;;;;17.99;73.63;93623.31;5084290;28;20214;-74
2023/10/06 08:34:14;;;;;;;15.33;12.80;;;;;;;18.22;73.31;93637.31;5071338;28;20233;-75
2023/10/06 08:36:41;;;;;;;15.30;13.43;;;;;;;18.08;73.48;93623.34;5085390;28;20245;-74
2023/10/06 08:39:08;;;;;;;16.43;12.53;;;;;;;18.24;73.73;93637.78;5087173;28;20231;-78
2023/10/06 08:41:37;;;;;;;14.77;13.37;;;;;;;18.12;72.27;93643.59;5089079;28;20189;-77
2023/10/06 08:44:03;;;;;;;16.57;14.80;;;;;;;18.15;72.90;93639.59;5092909;28;20316;-75
2023/10/06 08:46:31;;;;;;;16.10;13.73;;;;;;;18.22;71.68;93643.38;5094021;28;20183;-74
2023/10/06 08:48:58;;;;;;;14.67;13.37;;;;;;;18.19;72.39;93648.47;5087431;28;20216;-74
2023/10/06 08:51:26;;;;;;;17.97;15.00;;;;;;;18.21;72.09;93649.72;5085641;28;20212;-75
2023/10/06 08:53:55;;;;;;;14.67;13.03;;;;;;;18.32;71.63;93640.50;5071068;28;20312;-76
2023/10/06 08:56:21;;;;;;;15.73;13.90;;;;;;;18.14;72.48;93638.03;5087960;28;20202;-75
2023/10/06 08:58:47;;;;;;;15.00;13.63;;;;;;;17.98;72.69;93632.28;5084443;28;20264;-76
2023/10/06 09:01:13;;;;;;;15.40;13.90;;;;;;;18.15;72.14;93644.88;5088706;28;20178;-77
2023/10/06 09:03:39;;;;;;;16.97;14.50;;;;;;;17.90;71.86;93611.09;5092510;28;20230;-76
2023/10/06 09:06:06;;;;;;;16.03;14.50;;;;;;;18.24;72.16;93621.94;5070563;28;20652;-76
2023/10/06 09:08:43;;;;;;;18.30;14.30;;;;;;;18.44;71.36;93624.91;5066779;28;20225;-77
2023/10/06 09:11:10;;;;;;;17.90;15.17;;;;;;;18.61;70.83;93634.81;5082423;28;20239;-80
2023/10/06 09:13:36;;;;;;;16.90;15.30;;;;;;;18.47;70.35;93642.81;5083532;28;20288;-85
2023/10/06 09:16:09;;;;;;;15.30;13.43;;;;;;;18.29;70.81;93646.38;5089345;28;20221;-80
2023/10/06 09:18:38;;;;;;;16.17;14.63;;;;;;;18.76;70.08;93643.13;5087264;28;20253;-85
2023/10/06 09:21:12;;;;;;;20.90;14.00;;;;;;;18.50;70.15;93641.44;5088090;28;20210;-82
2023/10/06 09:23:40;;;;;;;15.57;13.83;;;;;;;18.57;70.03;93636.47;5089244;28;20395;-85
2023/10/06 09:26:11;;;;;;;15.90;13.83;;;;;;;18.51;70.01;93638.47;5097199;28;20237;-83
2023/10/06 09:28:53;;;;;;;16.13;14.17;;;;;;;18.65;68.84;93639.19;5088392;28;20204;-83
2023/10/06 09:31:36;;;;;;;14.77;13.47;;;;;;;18.51;69.82;93635.03;5089976;28;20202;-85
2023/10/06 09:34:07;;;;;;;15.87;14.37;;;;;;;18.87;68.70;93643.66;5076401;28;20226;-83
2023/10/06 09:36:35;;;;;;;16.20;14.27;;;;;;;18.72;69.02;93628.19;5075433;28;20191;-77
2023/10/06 09:39:01;;;;;;;14.77;13.43;;;;;;;19.10;68.62;93634.56;5079886;28;20285;-81
2023/10/06 09:41:32;;;;;;;15.00;13.23;;;;;;;19.02;67.86;93636.09;5083162;28;20198;-78
2023/10/06 09:44:07;;;;;;;16.10;14.27;;;;;;;19.35;68.65;93635.81;5075174;28;20222;-76
2023/10/06 09:46:36;;;;;;;17.43;13.60;;;;;;;19.56;66.95;93621.69;5054723;28;20276;-74
2023/10/06 09:49:05;;;;;;;14.70;13.40;;;;;;;19.57;66.32;93628.53;5060113;28;20318;-74
2023/10/06 09:51:32;;;;;;;16.30;14.53;;;;;;;19.18;68.01;93621.38;5066567;28;20217;-75
2023/10/06 09:53:58;;;;;;;15.77;14.27;;;;;;;19.22;66.62;93626.84;5067105;28;20227;-76
2023/10/06 09:56:24;;;;;;;16.07;14.57;;;;;;;19.33;66.66;93617.56;5067213;28;20243;-74
2023/10/06 09:58:51;;;;;;;14.93;13.53;;;;;;;19.66;65.83;93626.69;5055717;28;20223;-74
2023/10/06 10:01:17;;;;;;;14.90;13.60;;;;;;;19.35;65.30;93628.63;5062228;28;20232;-75
2023/10/06 10:03:43;;;;;;;15.93;13.33;;;;;;;18.85;66.96;93611.41;5060234;28;20228;-75
2023/10/06 10:06:09;;;;;;;15.17;13.73;;;;;;;18.82;67.94;93623.41;5066957;28;20274;-75
2023/10/06 10:08:36;;;;;;;15.47;13.93;;;;;;;18.96;67.09;93625.94;5066890;28;20218;-75
2023/10/06 10:11:13;;;;;;;15.23;13.70;;;;;;;19.03;66.84;93618.38;5057534;28;20183;-74
2023/10/06 10:14:11;;;;;;;15.43;13.87;;;;;;;18.93;67.02;93619.41;5058304;28;20226;-75
2023/10/06 10:17:18;;;;;;;15.93;14.17;;;;;;;19.17;66.50;93619.03;5062602;28;20193;-75
2023/10/06 10:19:46;;;;;;;15.30;14.00;;;;;;;19.18;65.98;93602.84;5056394;28;20218;-75
2023/10/06 10:22:13;;;;;;;15.77;13.97;;;;;;;18.97;65.23;93609.00;5059950;28;20183;-76
2023/10/06 10:24:39;;;;;;;14.93;13.47;;;;;;;19.10;66.11;93613.41;5092302;28;20718;-74
2023/10/06 10:27:16;;;;;;;15.50;13.90;;;;;;;19.37;64.63;93617.72;5063471;28;20219;-75
2023/10/06 10:29:42;;;;;;;16.07;13.27;;;;;;;18.84;65.20;93583.41;5063287;28;20213;-75
2023/10/06 10:32:11;;;;;;;14.73;13.33;;;;;;;19.12;65.17;93600.66;5067636;28;20215;-74
2023/10/06 10:35:14;;;;;;;19.93;14.30;;;;;;;19.09;64.72;93596.75;5061973;28;20230;-75
2023/10/06 10:38:14;;;;;;;14.70;13.33;;;;;;;19.33;62.07;93591.06;5066705;28;20939;-75
2023/10/06 10:40:47;;;;;;;15.10;13.50;;;;;;;19.18;63.69;93589.63;5024496;28;20224;-74
2023/10/06 10:46:47;;;;;;;18.57;14.83;;;;;;;19.12;64.61;93579.47;5112194;27;20306;-77
2023/10/06 10:49:15;;;;;;;25.37;14.60;;;;;;;18.79;64.92;93580.88;5088128;28;20224;-76
2023/10/06 10:51:55;;;;;;;15.20;13.73;;;;;;;18.95;64.14;93580.19;5078953;28;20185;-75
2023/10/06 10:54:22;;;;;;;14.83;13.47;;;;;;;18.73;64.31;93576.81;5064036;28;20241;-77
2023/10/06 10:56:53;;;;;;;15.37;14.00;;;;;;;19.13;64.23;93578.38;5064278;28;20195;-75
2023/10/06 10:59:20;;;;;;;16.00;14.20;;;;;;;19.22;62.81;93573.91;5073946;28;20221;-81
2023/10/06 11:01:51;;;;;;;16.90;15.07;;;;;;;19.36;62.90;93579.88;5082937;28;20182;-79
2023/10/06 11:04:40;;;;;;;16.57;14.20;;;;;;;19.49;61.60;93567.56;5068906;28;20226;-83
2023/10/06 11:07:11;;;;;;;15.67;14.07;;;;;;;19.19;60.34;93563.94;5062507;28;20209;-75
2023/10/06 11:09:39;;;;;;;20.20;12.97;;;;;;;18.97;58.49;93567.41;5061326;28;20286;-80
2023/10/06 11:12:17;;;;;;;15.17;13.87;;;;;;;18.87;59.93;93566.91;5048613;28;20195;-77
2023/10/06 11:14:42;;;;;;;14.10;12.33;;;;;;;19.13;57.72;93563.28;5059085;28;20227;-78
2023/10/06 11:17:08;;;;;;;13.63;12.50;;;;;;;19.25;58.36;93551.31;5062799;28;20199;-77
2023/10/06 11:19:37;;;;;;;15.23;13.30;;;;;;;19.63;57.06;93557.63;5065059;28;20228;-80
2023/10/06 11:22:09;;;;;;;12.93;11.73;;;;;;;19.31;53.34;93566.78;5062105;28;20214;-80
2023/10/06 11:24:35;;;;;;;15.10;12.00;;;;;;;19.69;53.10;93562.47;5055591;28;20228;-82
2023/10/06 11:27:23;;;;;;;12.85;11.65;;;;;;;20.13;54.38;93550.75;5064264;28;20205;-86
2023/10/06 11:29:53;;;;;;;13.23;11.13;;;;;;;19.98;53.03;93554.69;5062490;28;20239;-90
2023/10/06 11:32:19;;;;;;;14.57;13.17;;;;;;;20.05;53.55;93535.63;5075325;28;20210;-86